Time;durP1;ratioP1;P1;durP2;ratioP2;P2;SDS_P1;SDS_P2;PMS_P1;PMS_P2;Temp;Humidity;BMP_temperature;BMP_pressure;BME280_temperature;BME280_humidity;BME280_pressure;Samples;Min_cycle;Max_cycle;Signal;HPM_P1;HPM_P2
2023/05/26 00:00:27;;;;;;;8.57;5.25;;;;;;;15.74;100.00;100371.97;4913606;29;20028;-72
2023/05/26 00:02:53;;;;;;;8.57;4.78;;;;;;;15.85;100.00;100384.34;4913222;29;20036;-67
2023/05/26 00:05:20;;;;;;;6.63;4.60;;;;;;;15.83;100.00;100383.44;4913511;29;20036;-70
2023/05/26 00:07:46;;;;;;;8.60;4.65;;;;;;;15.84;100.00;100385.19;4913918;29;20512;-71
2023/05/26 00:10:11;;;;;;;7.35;4.10;;;;;;;15.66;100.00;100362.38;4919911;29;20032;-72
2023/05/26 00:12:37;;;;;;;8.88;4.90;;;;;;;15.44;100.00;100339.47;4920139;29;20533;-72
2023/05/26 00:15:03;;;;;;;6.60;4.93;;;;;;;15.81;100.00;100397.25;4902761;29;20042;-71
2023/05/26 00:17:29;;;;;;;6.72;4.63;;;;;;;15.81;100.00;100392.03;4919853;29;20032;-74
2023/05/26 00:19:55;;;;;;;9.30;4.60;;;;;;;15.61;100.00;100378.75;4902906;29;20054;-70
2023/05/26 00:22:20;;;;;;;8.07;4.43;;;;;;;15.76;100.00;100399.78;4919950;29;20423;-71
2023/05/26 00:24:46;;;;;;;7.18;4.30;;;;;;;15.65;100.00;100386.63;4919843;29;20030;-71
2023/05/26 00:27:13;;;;;;;6.85;4.72;;;;;;;15.67;100.00;100395.31;4920220;29;20024;-69
2023/05/26 00:29:38;;;;;;;7.30;4.85;;;;;;;15.61;100.00;100390.03;4919727;29;20087;-71
2023/05/26 00:32:04;;;;;;;7.60;4.80;;;;;;;15.56;100.00;100394.28;4919767;29;20491;-70
2023/05/26 00:34:30;;;;;;;8.55;4.68;;;;;;;15.11;100.00;100323.38;4919716;29;20111;-70
2023/05/26 00:36:55;;;;;;;7.90;4.80;;;;;;;15.52;100.00;100401.16;4919984;29;20583;-70
2023/05/26 00:39:21;;;;;;;6.85;5.40;;;;;;;15.48;100.00;100390.72;4902460;29;20208;-73
2023/05/26 00:41:47;;;;;;;7.28;4.70;;;;;;;15.51;100.00;100385.53;4919723;29;20447;-73
2023/05/26 00:44:12;;;;;;;7.63;5.15;;;;;;;15.58;100.00;100392.59;4919494;29;20039;-74
2023/05/26 00:46:38;;;;;;;7.47;5.07;;;;;;;15.49;100.00;100389.88;4919488;29;20027;-70
2023/05/26 00:49:04;;;;;;;7.07;4.95;;;;;;;15.47;100.00;100382.00;4919968;29;20051;-71
2023/05/26 00:51:31;;;;;;;7.93;4.65;;;;;;;15.17;100.00;100327.81;4919625;29;20073;-72
2023/05/26 00:53:56;;;;;;;9.73;4.85;;;;;;;15.42;100.00;100354.19;4919569;29;20028;-70
2023/05/26 00:56:24;;;;;;;6.40;3.95;;;;;;;15.53;100.00;100370.84;4919847;29;20039;-72
2023/05/26 00:58:49;;;;;;;9.32;4.28;;;;;;;15.42;100.00;100369.81;4919416;29;20111;-68
2023/05/26 01:01:16;;;;;;;8.50;4.90;;;;;;;15.10;100.00;100313.81;4919521;29;20573;-68
2023/05/26 01:03:42;;;;;;;6.25;4.93;;;;;;;15.50;100.00;100384.69;4919717;29;20032;-75
2023/05/26 01:06:07;;;;;;;6.53;4.70;;;;;;;15.56;100.00;100389.06;4919287;29;20032;-73
2023/05/26 01:08:33;;;;;;;9.45;4.95;;;;;;;15.53;100.00;100381.25;4919492;29;20024;-69
2023/05/26 01:11:06;;;;;;;8.00;4.47;;;;;;;15.11;100.00;100312.97;4919276;29;20020;-70
2023/05/26 01:13:45;;;;;;;6.80;4.55;;;;;;;15.44;100.00;100386.28;4919160;29;20028;-69
2023/05/26 01:16:14;;;;;;;9.68;5.07;;;;;;;15.25;100.00;100391.19;4919686;29;20028;-72
2023/05/26 01:18:52;;;;;;;6.45;4.72;;;;;;;15.17;100.00;100398.00;4919432;29;20043;-69
2023/05/26 01:21:21;;;;;;;8.30;4.85;;;;;;;15.16;100.00;100385.84;4916105;29;20040;-70
2023/05/26 01:24:02;;;;;;;7.28;4.55;;;;;;;15.15;100.00;100387.59;4915890;29;20036;-70
2023/05/26 01:26:52;;;;;;;7.00;4.72;;;;;;;15.08;100.00;100388.34;4916494;29;20044;-76
2023/05/26 01:29:22;;;;;;;5.88;4.28;;;;;;;15.03;100.00;100392.56;4915920;29;20028;-72
2023/05/26 01:31:47;;;;;;;8.50;4.63;;;;;;;14.49;100.00;100317.09;4916025;29;20495;-69
2023/05/26 01:34:13;;;;;;;9.20;4.32;;;;;;;15.06;100.00;100396.94;4915926;29;20083;-71
2023/05/26 01:36:38;;;;;;;5.82;3.90;;;;;;;14.93;100.00;100377.66;4916100;29;20034;-73
2023/05/26 01:39:05;;;;;;;7.50;4.50;;;;;;;14.98;100.00;100389.88;4916078;29;20040;-70
2023/05/26 01:41:49;;;;;;;7.43;5.40;;;;;;;14.92;100.00;100387.19;4916191;29;20079;-70
2023/05/26 01:44:27;;;;;;;12.52;6.35;;;;;;;14.76;100.00;100375.63;4916493;29;20040;-68
2023/05/26 01:46:53;;;;;;;9.90;6.38;;;;;;;14.75;100.00;100384.25;4915356;29;20032;-68
2023/05/26 01:49:28;;;;;;;9.35;6.32;;;;;;;14.70;100.00;100402.38;4915727;29;20046;-71
2023/05/26 01:52:01;;;;;;;9.10;5.82;;;;;;;14.70;100.00;100396.31;4904263;29;20043;-71
2023/05/26 01:54:33;;;;;;;7.07;4.82;;;;;;;14.68;100.00;100392.81;4916019;29;20064;-75
2023/05/26 01:56:59;;;;;;;9.90;5.18;;;;;;;14.28;100.00;100350.44;4915627;29;20056;-69
2023/05/26 01:59:26;;;;;;;12.07;6.03;;;;;;;14.41;100.00;100383.59;4915177;29;20027;-70
2023/05/26 02:01:51;;;;;;;25.17;6.43;;;;;;;14.33;100.00;100364.38;4915718;29;20038;-75
2023/05/26 02:04:17;;;;;;;22.80;7.00;;;;;;;14.38;100.00;100393.91;4915774;29;20024;-70
2023/05/26 02:06:42;;;;;;;12.45;6.82;;;;;;;14.28;100.00;100387.69;4915784;29;20483;-69
2023/05/26 02:09:08;;;;;;;14.77;6.57;;;;;;;13.72;100.00;100312.94;4915612;29;20035;-73
2023/05/26 02:11:33;;;;;;;22.08;6.35;;;;;;;14.04;100.00;100395.81;4898911;29;20021;-70
2023/05/26 02:13:59;;;;;;;18.70;6.18;;;;;;;13.94;100.00;100380.88;4914954;29;20039;-70
2023/05/26 02:16:26;;;;;;;7.47;5.63;;;;;;;14.06;100.00;100392.41;4915748;29;20055;-70
2023/05/26 02:18:52;;;;;;;9.32;5.10;;;;;;;13.78;100.00;100325.19;4915354;29;20115;-69
2023/05/26 02:21:18;;;;;;;9.30;5.15;;;;;;;14.13;100.00;100375.25;4915501;29;20039;-73
2023/05/26 02:23:43;;;;;;;9.85;5.07;;;;;;;14.16;100.00;100371.84;4912224;29;20119;-68
2023/05/26 02:26:09;;;;;;;8.70;5.75;;;;;;;14.15;100.00;100359.69;4881747;29;20032;-70
2023/05/26 02:28:35;;;;;;;8.20;5.38;;;;;;;14.14;100.00;100369.19;4914995;29;20107;-69
2023/05/26 02:31:01;;;;;;;8.07;4.90;;;;;;;14.13;100.00;100371.75;4915123;29;20490;-69
2023/05/26 02:33:26;;;;;;;9.57;5.18;;;;;;;14.24;100.00;100376.34;4915339;29;20047;-69
2023/05/26 02:35:52;;;;;;;9.13;5.35;;;;;;;14.43;100.00;100397.50;4915140;29;20111;-69
2023/05/26 02:38:17;;;;;;;6.63;4.55;;;;;;;14.36;100.00;100374.84;4915085;29;20028;-70
2023/05/26 02:40:43;;;;;;;6.70;4.82;;;;;;;14.41;100.00;100378.41;4914930;29;20048;-70
2023/05/26 02:43:08;;;;;;;5.18;4.35;;;;;;;14.20;100.00;100358.06;4914470;29;20035;-71
2023/05/26 02:45:33;;;;;;;5.65;4.80;;;;;;;14.33;100.00;100379.97;4915196;29;20028;-68
2023/05/26 02:47:59;;;;;;;6.75;4.75;;;;;;;14.46;100.00;100389.75;4914934;29;20119;-69
2023/05/26 02:50:24;;;;;;;6.57;4.63;;;;;;;14.49;100.00;100396.72;4914795;29;20032;-70
2023/05/26 02:52:50;;;;;;;12.52;5.18;;;;;;;14.39;100.00;100385.28;4914814;29;20091;-70
2023/05/26 02:55:15;;;;;;;6.72;5.25;;;;;;;14.15;100.00;100390.84;4914670;29;20494;-71
2023/05/26 02:57:41;;;;;;;9.13;4.88;;;;;;;13.98;100.00;100388.78;4914062;29;20036;-69
2023/05/26 03:00:07;;;;;;;9.20;5.25;;;;;;;13.77;100.00;100380.50;4914961;29;20028;-71
2023/05/26 03:02:33;;;;;;;8.02;5.15;;;;;;;13.91;100.00;100385.16;4914939;29;20123;-69
2023/05/26 03:04:59;;;;;;;9.60;5.20;;;;;;;13.88;100.00;100366.03;4914560;29;20060;-70
2023/05/26 03:07:24;;;;;;;8.18;5.15;;;;;;;14.10;100.00;100397.69;4914514;29;20059;-69
2023/05/26 03:09:50;;;;;;;7.75;4.82;;;;;;;14.20;100.00;100399.63;4914427;29;20087;-70
2023/05/26 03:12:15;;;;;;;6.72;5.10;;;;;;;14.22;100.00;100403.13;4914165;29;20106;-69
2023/05/26 03:14:42;;;;;;;8.68;5.22;;;;;;;14.18;100.00;100391.81;4914544;29;20481;-70
2023/05/26 03:17:08;;;;;;;7.72;5.50;;;;;;;14.27;100.00;100404.09;4897814;29;20039;-73
2023/05/26 03:19:33;;;;;;;11.48;5.82;;;;;;;13.88;100.00;100327.13;4914579;29;20032;-69
2023/05/26 03:21:59;;;;;;;8.48;5.28;;;;;;;14.31;100.00;100405.91;4914251;29;20046;-69
2023/05/26 03:24:24;;;;;;;8.73;5.47;;;;;;;14.08;100.00;100389.81;4914181;29;20024;-69
2023/05/26 03:26:51;;;;;;;7.45;5.38;;;;;;;14.23;100.00;100421.31;4913883;29;20510;-69
2023/05/26 03:29:17;;;;;;;6.63;5.22;;;;;;;13.86;100.00;100368.63;4897328;29;20036;-69
2023/05/26 03:31:44;;;;;;;10.02;5.53;;;;;;;14.18;100.00;100422.97;4913930;29;20463;-69
2023/05/26 03:34:10;;;;;;;8.23;5.63;;;;;;;14.21;100.00;100433.38;4914161;29;20024;-69
2023/05/26 03:36:38;;;;;;;7.75;6.20;;;;;;;14.29;100.00;100432.69;4914129;29;20020;-69
2023/05/26 03:39:05;;;;;;;8.70;6.47;;;;;;;14.38;100.00;100436.34;4914073;29;20143;-69
2023/05/26 03:41:31;;;;;;;9.15;5.85;;;;;;;14.44;100.00;100438.19;4913504;29;20036;-68
2023/05/26 03:43:57;;;;;;;12.35;6.93;;;;;;;14.36;100.00;100414.66;4903318;29;20032;-74
2023/05/26 03:46:22;;;;;;;12.05;7.43;;;;;;;14.58;100.00;100438.50;4912332;29;20035;-70
2023/05/26 03:48:48;;;;;;;12.35;7.55;;;;;;;14.66;100.00;100441.28;4910458;29;20036;-70
2023/05/26 03:51:13;;;;;;;14.35;8.00;;;;;;;14.63;100.00;100442.06;4910550;29;20028;-69
2023/05/26 03:53:39;;;;;;;8.93;7.00;;;;;;;14.58;100.00;100422.91;4914435;29;20394;-72
2023/05/26 03:56:05;;;;;;;10.70;7.68;;;;;;;14.68;100.00;100434.41;4914079;29;20036;-69
2023/05/26 03:58:30;;;;;;;11.68;6.97;;;;;;;14.63;100.00;100439.47;4914130;29;20042;-73
2023/05/26 04:00:56;;;;;;;11.55;8.07;;;;;;;14.49;100.00;100444.38;4914274;29;20028;-71
2023/05/26 04:03:21;;;;;;;11.55;8.00;;;;;;;14.48;100.00;100434.81;4897287;29;20079;-71
2023/05/26 04:05:47;;;;;;;12.60;7.90;;;;;;;14.63;100.00;100442.06;4914365;29;20035;-71
2023/05/26 04:08:13;;;;;;;15.27;8.45;;;;;;;14.81;100.00;100445.88;4914232;29;20564;-71
2023/05/26 04:10:38;;;;;;;11.25;7.82;;;;;;;14.93;100.00;100435.72;4911872;29;20122;-71
2023/05/26 04:13:04;;;;;;;11.70;7.57;;;;;;;14.71;100.00;100392.84;4908998;29;20501;-70
2023/05/26 04:15:29;;;;;;;13.02;7.53;;;;;;;15.05;100.00;100445.47;4896647;29;20036;-71
2023/05/26 04:17:55;;;;;;;10.52;6.72;;;;;;;15.01;100.00;100438.47;4897121;29;20046;-71
2023/05/26 04:20:20;;;;;;;11.25;8.05;;;;;;;15.10;100.00;100443.81;4896650;29;20119;-68
2023/05/26 04:22:46;;;;;;;13.18;8.52;;;;;;;15.08;100.00;100447.22;4913652;29;20119;-70
2023/05/26 04:25:12;;;;;;;10.25;7.70;;;;;;;15.09;100.00;100455.09;4912912;29;20044;-70
2023/05/26 04:27:58;;;;;;;11.95;8.05;;;;;;;14.79;100.00;100372.19;4890593;29;20048;-71
2023/05/26 04:30:24;;;;;;;10.27;6.95;;;;;;;15.26;100.00;100450.16;4891610;29;20805;-69
2023/05/26 04:32:49;;;;;;;11.85;6.57;;;;;;;15.24;100.00;100445.78;4890581;29;20109;-70
2023/05/26 04:35:15;;;;;;;10.32;6.32;;;;;;;14.97;100.00;100390.72;4892243;29;20033;-69
2023/05/26 04:37:42;;;;;;;9.40;6.45;;;;;;;15.35;100.00;100445.13;4891849;29;20028;-71
2023/05/26 04:40:09;;;;;;;10.88;7.13;;;;;;;15.35;100.00;100439.94;4891738;29;20084;-69
2023/05/26 04:42:38;;;;;;;9.80;6.93;;;;;;;15.32;100.00;100436.41;4892587;29;20037;-69
2023/05/26 04:45:05;;;;;;;13.27;7.03;;;;;;;15.33;100.00;100440.75;4892260;29;20319;-69
2023/05/26 04:47:32;;;;;;;9.32;6.65;;;;;;;15.41;100.00;100453.88;4876907;29;20511;-69
2023/05/26 04:49:59;;;;;;;10.35;6.93;;;;;;;15.42;100.00;100455.66;4892393;29;20048;-69
2023/05/26 04:52:25;;;;;;;9.00;6.68;;;;;;;15.40;100.00;100450.41;4892305;29;20045;-68
2023/05/26 04:54:52;;;;;;;11.48;7.03;;;;;;;15.30;100.00;100446.78;4892399;29;20043;-69
2023/05/26 04:57:18;;;;;;;9.32;6.78;;;;;;;15.18;100.00;100418.84;4896198;29;20044;-69
2023/05/26 04:59:45;;;;;;;9.38;6.88;;;;;;;15.35;100.00;100442.53;4897943;29;20041;-69
2023/05/26 05:02:11;;;;;;;11.27;7.60;;;;;;;15.46;100.00;100445.28;4883638;29;20040;-68
2023/05/26 05:04:36;;;;;;;11.23;7.30;;;;;;;15.51;100.00;100450.59;4904872;29;20028;-72
2023/05/26 05:07:02;;;;;;;13.48;7.97;;;;;;;15.47;100.00;100434.03;4916962;29;20035;-70
2023/05/26 05:09:27;;;;;;;8.65;7.10;;;;;;;15.64;100.00;100444.72;4913008;29;20486;-73
2023/05/26 05:11:53;;;;;;;9.77;7.38;;;;;;;15.72;100.00;100430.97;4915790;29;20064;-69
2023/05/26 05:14:19;;;;;;;9.32;7.28;;;;;;;15.49;100.00;100366.44;4916374;29;20028;-70
2023/05/26 05:16:46;;;;;;;11.77;7.80;;;;;;;16.06;100.00;100449.72;4916275;29;20509;-72
2023/05/26 05:19:11;;;;;;;9.82;7.75;;;;;;;16.00;100.00;100416.66;4916237;29;20479;-69
2023/05/26 05:21:37;;;;;;;9.15;7.55;;;;;;;16.25;100.00;100435.19;4915950;29;20131;-69
2023/05/26 05:24:02;;;;;;;20.10;7.90;;;;;;;16.34;100.00;100431.00;4916451;29;20024;-69
2023/05/26 05:26:28;;;;;;;9.82;7.38;;;;;;;16.49;100.00;100429.44;4916431;29;20047;-70
2023/05/26 05:28:53;;;;;;;8.75;6.53;;;;;;;16.51;100.00;100409.50;4916312;29;20029;-71
2023/05/26 05:31:19;;;;;;;8.10;6.47;;;;;;;16.79;100.00;100439.31;4916482;29;20024;-72
2023/05/26 05:33:45;;;;;;;10.48;6.78;;;;;;;16.81;100.00;100415.91;4915984;29;20038;-72
2023/05/26 05:36:11;;;;;;;9.70;6.20;;;;;;;17.08;100.00;100428.34;4915959;29;20534;-71
2023/05/26 05:38:36;;;;;;;10.27;6.88;;;;;;;17.28;100.00;100445.94;4913247;29;20038;-71
2023/05/26 05:41:02;;;;;;;8.05;5.50;;;;;;;17.33;100.00;100428.56;4915249;29;20119;-68
2023/05/26 05:43:29;;;;;;;11.27;6.05;;;;;;;17.56;100.00;100444.44;4912806;29;20046;-70
2023/05/26 05:45:55;;;;;;;8.15;5.35;;;;;;;17.64;100.00;100441.88;4916122;29;20035;-70
2023/05/26 05:48:20;;;;;;;8.77;4.90;;;;;;;17.49;100.00;100431.34;4914242;29;20032;-69
2023/05/26 05:50:46;;;;;;;10.18;4.90;;;;;;;17.65;100.00;100437.53;4913022;29;20028;-70
2023/05/26 05:53:12;;;;;;;7.28;4.80;;;;;;;17.72;100.00;100427.16;4915982;29;20028;-69
2023/05/26 05:55:39;;;;;;;9.55;4.88;;;;;;;17.88;100.00;100453.34;4915742;29;20051;-69
2023/05/26 05:58:04;;;;;;;9.60;5.07;;;;;;;17.93;100.00;100443.81;4915675;29;20451;-70
2023/05/26 06:00:30;;;;;;;7.40;4.68;;;;;;;17.57;100.00;100362.66;4915582;29;20095;-70
2023/05/26 06:02:56;;;;;;;8.90;4.97;;;;;;;18.08;100.00;100437.84;4913202;29;20046;-68
2023/05/26 06:05:21;;;;;;;11.98;5.07;;;;;;;18.27;100.00;100437.06;4909006;29;20038;-70
2023/05/26 06:07:46;;;;;;;10.82;4.90;;;;;;;18.36;100.00;100438.84;4914920;29;20080;-69
2023/05/26 06:10:12;;;;;;;7.00;4.60;;;;;;;18.53;100.00;100427.59;4915739;29;20020;-72
2023/05/26 06:12:37;;;;;;;8.82;5.50;;;;;;;18.80;100.00;100450.34;4915290;29;20031;-71
2023/05/26 06:15:03;;;;;;;7.15;4.80;;;;;;;18.92;100.00;100458.25;4914065;29;20040;-71
2023/05/26 06:17:28;;;;;;;5.95;4.75;;;;;;;19.05;100.00;100456.56;4915133;29;20059;-69
2023/05/26 06:19:54;;;;;;;7.65;3.90;;;;;;;19.10;100.00;100456.53;4915245;29;20032;-69
2023/05/26 06:22:19;;;;;;;5.95;3.75;;;;;;;19.08;100.00;100429.50;4915572;29;20038;-70
2023/05/26 06:24:45;;;;;;;4.95;3.42;;;;;;;18.72;100.00;100389.31;4911604;29;20434;-70
2023/05/26 06:27:10;;;;;;;4.78;3.40;;;;;;;19.01;100.00;100451.28;4909057;29;20040;-67
2023/05/26 06:29:35;;;;;;;7.47;4.40;;;;;;;19.12;100.00;100475.75;4912246;29;20037;-70
2023/05/26 06:32:01;;;;;;;10.48;4.30;;;;;;;19.14;100.00;100471.38;4910784;29;20036;-70
2023/05/26 06:34:27;;;;;;;9.23;3.80;;;;;;;19.02;100.00;100461.75;4910191;29;20080;-70
2023/05/26 06:36:54;;;;;;;7.43;4.07;;;;;;;19.02;100.00;100473.97;4895729;29;20791;-70
2023/05/26 06:39:20;;;;;;;6.63;3.42;;;;;;;19.00;100.00;100478.31;4912883;29;20088;-69
2023/05/26 06:41:45;;;;;;;7.25;3.70;;;;;;;18.87;100.00;100465.19;4910301;29;20104;-70
2023/05/26 06:44:11;;;;;;;5.55;3.90;;;;;;;18.90;100.00;100475.69;4910694;29;20032;-71
2023/05/26 06:46:36;;;;;;;7.97;3.60;;;;;;;19.00;100.00;100478.31;4914680;29;20044;-69
2023/05/26 06:49:02;;;;;;;7.25;3.80;;;;;;;19.01;100.00;100478.31;4910218;29;20032;-71
2023/05/26 06:51:27;;;;;;;7.60;4.05;;;;;;;19.10;100.00;100480.09;4912902;29;20032;-69
2023/05/26 06:53:52;;;;;;;8.70;4.38;;;;;;;19.16;100.00;100481.84;4912827;29;20044;-69
2023/05/26 06:56:18;;;;;;;11.57;4.18;;;;;;;18.99;100.00;100466.09;4914683;29;20028;-70
2023/05/26 06:58:43;;;;;;;5.63;3.67;;;;;;;19.12;100.00;100486.22;4914422;29;20036;-69
2023/05/26 07:01:09;;;;;;;9.55;3.72;;;;;;;19.07;100.00;100477.47;4914623;29;20020;-74
2023/05/26 07:03:34;;;;;;;6.65;4.15;;;;;;;19.12;100.00;100483.59;4897390;29;20055;-71
2023/05/26 07:06:00;;;;;;;5.88;4.10;;;;;;;19.19;100.00;100489.69;4897511;29;20030;-70
2023/05/26 07:08:26;;;;;;;8.40;3.38;;;;;;;18.87;100.00;100464.31;4914706;29;20024;-71
2023/05/26 07:10:52;;;;;;;10.00;4.10;;;;;;;18.70;100.00;100433.75;4910326;29;20115;-70
2023/05/26 07:13:17;;;;;;;6.63;3.70;;;;;;;18.71;100.00;100453.78;4914049;29;20027;-71
2023/05/26 07:15:43;;;;;;;7.38;4.15;;;;;;;18.92;100.00;100492.25;4914171;29;20055;-70
2023/05/26 07:18:09;;;;;;;6.32;3.95;;;;;;;18.92;100.00;100491.41;4911131;29;20028;-68
2023/05/26 07:20:35;;;;;;;6.93;3.60;;;;;;;18.94;100.00;100494.00;4913119;29;20028;-69
2023/05/26 07:23:00;;;;;;;7.20;3.78;;;;;;;19.00;100.00;100501.88;4913712;29;20028;-70
2023/05/26 07:25:26;;;;;;;6.18;3.90;;;;;;;19.05;100.00;100500.13;4914078;29;20028;-71
2023/05/26 07:27:51;;;;;;;7.53;4.43;;;;;;;19.08;100.00;100500.16;4878235;29;20058;-71
2023/05/26 07:30:17;;;;;;;6.93;4.35;;;;;;;19.03;100.00;100504.50;4913873;29;20043;-70
2023/05/26 07:32:43;;;;;;;6.55;4.43;;;;;;;19.01;100.00;100495.78;4909579;29;20039;-70
2023/05/26 07:35:08;;;;;;;9.52;4.43;;;;;;;19.01;100.00;100480.06;4912615;29;20024;-69
2023/05/26 07:37:34;;;;;;;9.80;4.43;;;;;;;19.07;100.00;100482.72;4911462;29;20032;-70
2023/05/26 07:39:59;;;;;;;8.50;4.53;;;;;;;19.21;100.00;100499.28;4913511;29;20454;-71
2023/05/26 07:42:25;;;;;;;6.63;4.35;;;;;;;19.28;100.00;100497.59;4913301;29;20028;-70
2023/05/26 07:44:50;;;;;;;8.93;3.67;;;;;;;18.94;100.00;100436.44;4913720;29;20083;-69
2023/05/26 07:47:16;;;;;;;6.00;4.10;;;;;;;19.31;100.00;100499.31;4913809;29;20028;-71
2023/05/26 07:49:41;;;;;;;8.20;4.15;;;;;;;19.20;100.00;100484.50;4864167;29;20050;-70
2023/05/26 07:52:06;;;;;;;8.05;4.22;;;;;;;19.17;100.00;100481.84;4911434;29;20024;-70
2023/05/26 07:54:32;;;;;;;7.40;4.30;;;;;;;19.17;100.00;100486.22;4914063;29;20024;-70
2023/05/26 07:56:57;;;;;;;5.72;3.95;;;;;;;18.68;100.00;100418.91;4913625;29;20424;-69
2023/05/26 07:59:23;;;;;;;8.73;4.60;;;;;;;19.21;100.00;100501.06;4913610;29;20546;-68
2023/05/26 08:01:48;;;;;;;6.53;4.20;;;;;;;18.85;100.00;100474.75;4913411;29;20076;-71
2023/05/26 08:04:14;;;;;;;8.05;4.43;;;;;;;18.69;100.00;100458.16;4913740;29;20040;-69
2023/05/26 08:06:40;;;;;;;8.13;4.38;;;;;;;18.59;100.00;100435.44;4880142;29;20407;-68
2023/05/26 08:09:06;;;;;;;8.77;4.78;;;;;;;19.02;100.00;100489.69;4913746;29;20024;-76
2023/05/26 08:11:31;;;;;;;7.05;4.25;;;;;;;19.08;100.00;100505.41;4896783;29;20030;-68
2023/05/26 08:13:58;;;;;;;8.13;4.15;;;;;;;19.03;100.00;100496.66;4914076;29;20036;-68
2023/05/26 08:16:24;;;;;;;7.50;4.90;;;;;;;18.82;100.00;100474.75;4896608;29;20028;-71
2023/05/26 08:18:50;;;;;;;9.00;4.78;;;;;;;19.02;100.00;100487.94;4913697;29;20032;-70
2023/05/26 08:21:15;;;;;;;8.27;4.75;;;;;;;19.11;100.00;100494.91;4896917;29;20033;-70
2023/05/26 08:23:41;;;;;;;7.70;4.72;;;;;;;19.19;100.00;100489.69;4913391;29;20047;-73
2023/05/26 08:26:08;;;;;;;7.65;4.03;;;;;;;19.19;100.00;100494.94;4913546;29;20040;-70
2023/05/26 08:28:33;;;;;;;10.32;4.55;;;;;;;19.20;100.00;100497.56;4913752;29;20024;-69
2023/05/26 08:30:59;;;;;;;7.32;4.78;;;;;;;18.74;100.00;100424.16;4913750;29;20082;-68
2023/05/26 08:33:24;;;;;;;7.85;4.82;;;;;;;18.73;100.00;100407.59;4917036;29;20107;-71
2023/05/26 08:35:50;;;;;;;7.25;5.18;;;;;;;19.04;100.00;100474.84;4916320;29;20024;-70
2023/05/26 08:38:15;;;;;;;6.47;5.18;;;;;;;19.17;100.00;100489.69;4916890;29;20036;-71
2023/05/26 08:40:41;;;;;;;9.40;5.57;;;;;;;19.19;100.00;100484.47;4916970;29;20384;-70
2023/05/26 08:43:08;;;;;;;11.73;5.13;;;;;;;19.28;100.00;100475.75;4917459;29;20083;-75
2023/05/26 08:45:34;;;;;;;7.55;4.72;;;;;;;19.28;100.00;100468.78;4917121;29;20076;-70
2023/05/26 08:48:02;;;;;;;8.30;4.25;;;;;;;19.18;100.00;100478.38;4868461;29;20664;-69
2023/05/26 08:50:30;;;;;;;5.95;4.63;;;;;;;19.31;100.00;100471.38;4900446;29;20337;-69
2023/05/26 08:52:57;;;;;;;6.28;4.95;;;;;;;19.37;100.00;100478.41;4900705;29;20032;-69
2023/05/26 08:55:23;;;;;;;7.43;4.97;;;;;;;19.17;100.00;100447.81;4917635;29;20032;-69
2023/05/26 08:57:49;;;;;;;6.15;4.60;;;;;;;18.88;100.00;100400.69;4917591;29;20462;-73
2023/05/26 09:00:16;;;;;;;4.80;3.72;;;;;;;19.40;100.00;100481.88;4917444;29;20118;-69
2023/05/26 09:02:42;;;;;;;7.55;3.80;;;;;;;19.39;100.00;100487.13;4917520;29;20411;-69
2023/05/26 09:05:08;;;;;;;6.47;3.72;;;;;;;19.34;100.00;100484.50;4913582;29;20035;-69
2023/05/26 09:07:34;;;;;;;6.80;3.85;;;;;;;19.29;100.00;100475.78;4898567;29;20123;-69
2023/05/26 09:10:22;;;;;;;6.35;3.45;;;;;;;19.08;100.00;100472.25;4911622;29;20615;-69
2023/05/26 09:12:48;;;;;;;6.70;3.75;;;;;;;19.06;100.00;100460.03;4914981;29;20028;-70
2023/05/26 09:15:21;;;;;;;5.50;3.30;;;;;;;19.10;100.00;100459.16;4916919;29;20111;-70
2023/05/26 09:17:47;;;;;;;7.80;4.18;;;;;;;19.31;100.00;100468.78;4899003;29;20020;-68
2023/05/26 09:20:13;;;;;;;5.40;3.17;;;;;;;19.14;100.00;100452.19;4915894;29;20042;-69
2023/05/26 09:22:39;;;;;;;6.03;3.47;;;;;;;19.20;100.00;100460.94;4916301;29;20435;-74
2023/05/26 09:25:05;;;;;;;5.65;4.07;;;;;;;19.37;100.00;100458.31;4916081;29;20035;-73
2023/05/26 09:27:31;;;;;;;4.95;3.50;;;;;;;19.39;100.00;100450.47;4899551;29;20028;-69
2023/05/26 09:30:00;;;;;;;5.40;3.33;;;;;;;19.63;100.00;100464.44;4916443;29;20070;-69
2023/05/26 09:32:29;;;;;;;5.10;3.85;;;;;;;19.34;100.00;100399.84;4913171;29;20040;-69
2023/05/26 09:35:00;;;;;;;5.40;3.40;;;;;;;19.90;100.00;100462.69;4897403;29;20051;-69
2023/05/26 09:37:30;;;;;;;5.50;3.40;;;;;;;20.03;100.00;100460.03;4916439;29;20035;-68
2023/05/26 09:40:10;;;;;;;5.45;3.10;;;;;;;20.08;100.00;100457.41;4916154;29;20052;-68
2023/05/26 09:42:36;;;;;;;;;;;;;;;20.27;100.00;100467.84;4915531;29;20465;-68
2023/05/26 09:45:02;;;;;;;4.30;3.00;;;;;;;20.32;100.00;100452.97;4866328;29;19926;-68
2023/05/26 09:47:34;;;;;;;6.20;3.53;;;;;;;20.49;100.00;100453.78;4916039;29;20036;-69
2023/05/26 09:50:05;;;;;;;6.43;2.80;;;;;;;20.65;100.00;100456.34;4916312;29;20028;-69
2023/05/26 09:52:32;;;;;;;5.47;2.97;;;;;;;20.80;100.00;100455.44;4883536;29;20039;-67
2023/05/26 09:54:57;;;;;;;4.25;2.90;;;;;;;20.99;100.00;100450.94;4916241;29;20032;-68
2023/05/26 09:57:25;;;;;;;5.40;3.00;;;;;;;21.06;97.56;100444.78;4916103;29;20493;-68
2023/05/26 09:59:55;;;;;;;5.00;3.00;;;;;;;21.21;99.62;100437.66;4915920;29;20106;-68
2023/05/26 10:02:23;;;;;;;4.93;2.75;;;;;;;20.78;96.54;100376.69;4915928;29;20398;-68
2023/05/26 10:04:51;;;;;;;4.60;3.10;;;;;;;21.24;95.20;100433.25;4915391;29;20028;-73
2023/05/26 10:07:20;;;;;;;3.15;2.53;;;;;;;21.29;95.16;100430.59;4916317;29;20107;-69
2023/05/26 10:09:52;;;;;;;3.78;2.40;;;;;;;21.35;93.80;100427.91;4916123;29;20036;-73
2023/05/26 10:12:22;;;;;;;3.72;2.60;;;;;;;21.50;92.97;100419.03;4915766;29;20118;-70
2023/05/26 10:14:49;;;;;;;7.57;3.05;;;;;;;21.47;90.19;100398.94;4915696;29;20036;-72
2023/05/26 10:17:14;;;;;;;5.22;2.67;;;;;;;21.90;90.10;100417.81;4914860;29;20072;-75
2023/05/26 10:19:40;;;;;;;3.92;2.20;;;;;;;22.01;84.47;100394.91;4898407;29;20091;-67
2023/05/26 10:22:17;;;;;;;4.78;2.38;;;;;;;21.75;81.34;100334.75;4915954;29;20490;-72
2023/05/26 10:24:50;;;;;;;4.63;2.42;;;;;;;22.21;80.40;100378.03;4914779;29;20072;-69
2023/05/26 10:27:24;;;;;;;3.50;2.13;;;;;;;22.45;76.33;100395.25;4914775;29;20048;-71
2023/05/26 10:29:57;;;;;;;3.42;1.83;;;;;;;22.53;73.26;100368.84;4914182;29;20031;-67
2023/05/26 10:32:45;;;;;;;6.50;1.92;;;;;;;22.74;75.57;100368.56;4914345;29;20028;-68
2023/05/26 10:35:31;;;;;;;3.30;2.10;;;;;;;23.06;75.12;100358.41;4912092;29;20495;-69
2023/05/26 10:38:05;;;;;;;4.35;2.22;;;;;;;23.28;78.77;100358.94;4914980;29;20036;-69
2023/05/26 10:40:34;;;;;;;3.85;2.10;;;;;;;23.34;75.11;100361.47;4915230;29;20134;-70
2023/05/26 10:43:01;;;;;;;4.07;2.20;;;;;;;23.47;73.55;100340.19;4896912;29;20180;-70
2023/05/26 10:45:32;;;;;;;3.45;2.15;;;;;;;23.69;74.26;100344.13;4915092;29;20099;-71
2023/05/26 10:48:05;;;;;;;3.90;2.28;;;;;;;23.68;74.37;100359.97;4915132;29;20032;-68
2023/05/26 10:51:10;;;;;;;4.30;2.33;;;;;;;23.88;76.74;100349.03;4912768;29;20043;-69
2023/05/26 10:53:42;;;;;;;4.40;2.30;;;;;;;23.99;71.07;100360.28;4855637;29;20050;-71
2023/05/26 10:56:09;;;;;;;4.28;2.42;;;;;;;24.11;72.70;100348.59;4855981;29;20045;-71
2023/05/26 10:58:40;;;;;;;7.03;2.33;;;;;;;24.06;72.99;100332.00;4856175;29;20428;-68
2023/05/26 11:01:09;;;;;;;5.57;2.58;;;;;;;24.44;70.63;100348.75;4855775;29;20493;-69
2023/05/26 11:03:49;;;;;;;3.50;2.00;;;;;;;24.70;69.39;100342.06;4855980;29;20560;-68
2023/05/26 11:06:16;;;;;;;4.47;2.00;;;;;;;24.52;65.65;100287.88;4856188;29;20405;-69
2023/05/26 11:08:45;;;;;;;6.30;2.58;;;;;;;24.95;66.25;100346.72;4856030;29;20136;-74
2023/05/26 11:11:12;;;;;;;3.72;2.28;;;;;;;25.05;63.50;100332.41;4856261;29;20056;-68
2023/05/26 11:13:46;;;;;;;2.88;1.90;;;;;;;25.22;62.78;100339.88;4855666;29;20030;-69
2023/05/26 11:16:17;;;;;;;3.83;2.25;;;;;;;25.24;59.97;100332.78;4855791;29;20124;-68